Wanatah, Indiana
Current Conditions -  °F | °C
As of 9:56 AM on Thursday 30 Oct 2014 (Local Time) from KVPZ Reporting Station
Clear Clear  
Wind Chill:   Ceiling: Unl
Heat Index:   Visibility: 10mi
Dew Point:   Wind: 8mph
Humidity: 65%   Direction: 230°SW
Pressure: 30.15"   Gusts: NA
Location:  41.43°N, 86.9°W
Report Text: KVPZ 301456Z AUTO 23007KT 10SM CLR 07/01 A3015 RMK AO2 SLP215 T00720011 50003 TSNO
Loading
Personal Weather Stations






























Interactive Weather Map
Tropical Storm Tracking
New forecast layout! Learn more

10-Day Weather Forecast

Advertisements
Track Severe Weather on mobile